This is the latest recevied weather packets stored in our database for station/object ED1ZAI-13. If no packets are shown the sender has not sent any weather packets the latest 10 day(s).
| Time | Temp. | Humidity | Pressure | Rain* | Wind** | Luminosity | Snow |
|---|---|---|---|---|---|---|---|
| 1777808770 | 14.44° C | 66% | 1012.5 hPa | 0 mm | - | - | - |
| 1777808170 | 15.56° C | 71% | 1012.7 hPa | 0 mm | - | - | - |
| 1777807570 | 15° C | 74% | 1012.9 hPa | 0.51 mm | - | - | - |
| 1777806970 | 15° C | 74% | 1013 hPa | 1.02 mm | - | - | - |
| 1777806369 | 13.33° C | 81% | 1013.1 hPa | 1.52 mm | - | - | - |
| 1777805769 | 12.78° C | 84% | 1013.3 hPa | 2.54 mm | - | - | - |
| 1777805170 | 12.22° C | 86% | 1013.4 hPa | 3.05 mm | - | - | - |
| 1777804570 | 11.11° C | 88% | 1014.1 hPa | 3.56 mm | - | - | - |
| 1777803970 | 10° C | 91% | 1014.5 hPa | 3.05 mm | - | - | - |
| 1777803370 | 9.44° C | 91% | 1014.9 hPa | 2.54 mm | - | - | - |
| 1777802769 | 8.89° C | 90% | 1014.8 hPa | 2.54 mm | - | - | - |
| 1777802169 | 8.89° C | 89% | 1014.6 hPa | 2.03 mm | - | - | - |
| 1777801569 | 12.22° C | 80% | 1013.7 hPa | 1.02 mm | - | - | - |
| 1777800970 | 13.33° C | 77% | 1013.3 hPa | 0 mm | - | - | - |
| 1777800370 | 13.33° C | 75% | 1013.1 hPa | 0 mm | - | - | - |
| 1777799770 | 14.44° C | 74% | 1013.1 hPa | 0 mm | - | - | - |
| 1777799170 | 13.33° C | 74% | 1013.1 hPa | 0 mm | - | - | - |
| 1777798569 | 13.89° C | 74% | 1013 hPa | 0 mm | - | - | - |
| 1777797969 | 13.33° C | 77% | 1013.1 hPa | 0 mm | - | - | - |
| 1777797369 | 13.33° C | 74% | 1013.2 hPa | 0 mm | - | - | - |
| 1777796771 | 13.89° C | 74% | 1013.1 hPa | 0 mm | - | - | - |
| 1777796170 | 13.89° C | 75% | 1013.1 hPa | 0 mm | - | - | - |
| 1777795570 | 13.33° C | 78% | 1013.1 hPa | 0 mm | - | - | - |
| 1777794970 | 13.33° C | 78% | 1013.1 hPa | 0 mm | - | - | - |
| 1777794370 | 12.78° C | 80% | 1013.3 hPa | 0 mm | - | - | - |
* Rain latest hour (hover to see other rain measurements)
** Current wind speed in m/s (hover to see current wind gust speed)